Broadwell, Illinois
Current Conditions -  °F | °C
As of 10:52 PM on Friday 24 Oct 2014 (Local Time) from KSPI Reporting Station
Overcast Overcast  
Wind Chill: 17°   Ceiling: 4400
Heat Index: 17°   Visibility: 10mi
Dew Point: 10°   Wind: 5mph
Humidity: 65%   Direction: 200°SSW
Pressure: 29.99"   Gusts: NA
Location:  39.9935°N, 89.4758°W
Report Text: KSPI 250352Z AUTO 20004KT 10SM OVC044 17/10 A2999 RMK AO2 SLP153 T01670100
Loading
Personal Weather Stations






























Interactive Weather Map
Tropical Storm Tracking
New forecast layout! Learn more

10-Day Weather Forecast

Advertisements
Track Severe Weather on mobile